Swan, Texas
Current Conditions -  °F | °C
As of 9:53 AM on Monday 24 Nov 2014 (Local Time) from KTYR Reporting Station
Clear Clear  
Wind Chill: 54°   Ceiling: Unl
Heat Index: 54°   Visibility: 10mi
Dew Point: 33°   Wind: 8mph
Humidity: 45%   Direction: 340°NNW
Pressure: 30.05"   Gusts: NA
Location:  32.394°N, 95.4356°W
Report Text: KTYR 241553Z 34007KT 10SM CLR 12/01 A3005 RMK AO2 SLP173 T01220006
Loading
Personal Weather Stations






























Interactive Weather Map New forecast layout! Learn more

10-Day Weather Forecast

Advertisements
Track Severe Weather on mobile